^^
TXWeather Station Historical Data
Daily Summary for May 10, 2022 Units:  English    Metric   Both
Daily Weekly Monthly Yearly Custom
  High: Low: Average:
Temperature: 93.0 °F 77.0 °F 83.6 °F
Dew Point: 77.0 °F 71.0 °F 73.1 °F
Humidity: 84% 53% 72%
Wind Speed: 17mph 4mph 9.3mph
Wind Gust: 17mph - -
Wind- - SE
Pressure: 30.1 in 30.0 in -
Precipitation: 0.000 in    
Historical Graphs
 
 
Tabular Data for May 10, 2022
Time Temperature Dew Point Pressure Wind Wind Speed Wind Gust Humidity Rainfall Rate (Hourly) solar
00:04 79.0 °F 73.0 °F 30.0 in SE 10 mph 11 mph 81% 0.000 in 0.00 W/m2
00:09 79.0 °F 73.0 °F 30.0 in SE 10 mph 11 mph 81% 0.000 in 0.00 W/m2
00:14 79.0 °F 73.0 °F 30.0 in SE 8 mph 11 mph 81% 0.000 in 0.00 W/m2
00:19 79.0 °F 73.0 °F 30.0 in SE 12 mph 12 mph 81% 0.000 in 0.00 W/m2
00:24 79.0 °F 73.0 °F 30.0 in SE 14 mph 14 mph 81% 0.000 in 0.00 W/m2
00:29 79.0 °F 73.0 °F 30.0 in SE 11 mph 12 mph 81% 0.000 in 0.00 W/m2
00:34 79.0 °F 73.0 °F 30.0 in SE 9 mph 9 mph 81% 0.000 in 0.00 W/m2
00:39 79.0 °F 73.0 °F 30.0 in SE 12 mph 12 mph 81% 0.000 in 0.00 W/m2
00:44 79.0 °F 73.0 °F 30.0 in SE 8 mph 12 mph 81% 0.000 in 0.00 W/m2
00:49 79.0 °F 73.0 °F 30.0 in SE 10 mph 10 mph 81% 0.000 in 0.00 W/m2
00:54 79.0 °F 73.0 °F 30.0 in SE 9 mph 11 mph 82% 0.000 in 0.00 W/m2
00:59 79.0 °F 73.0 °F 30.0 in SE 10 mph 10 mph 82% 0.000 in 0.00 W/m2
01:04 79.0 °F 73.0 °F 30.0 in SE 9 mph 10 mph 82% 0.000 in 0.00 W/m2
01:09 79.0 °F 73.0 °F 30.0 in SE 11 mph 11 mph 82% 0.000 in 0.00 W/m2
01:14 79.0 °F 73.0 °F 30.0 in SE 8 mph 11 mph 82% 0.000 in 0.00 W/m2
01:19 79.0 °F 73.0 °F 30.0 in SE 13 mph 13 mph 82% 0.000 in 0.00 W/m2
01:24 79.0 °F 72.0 °F 30.0 in SSE 9 mph 10 mph 81% 0.000 in 0.00 W/m2
01:29 79.0 °F 72.0 °F 30.0 in SSE 11 mph 11 mph 81% 0.000 in 0.00 W/m2
01:34 78.0 °F 72.0 °F 30.0 in SE 9 mph 11 mph 81% 0.000 in 0.00 W/m2
01:39 78.0 °F 72.0 °F 30.0 in SE 13 mph 13 mph 81% 0.000 in 0.00 W/m2
01:44 78.0 °F 72.0 °F 30.0 in SE 13 mph 14 mph 81% 0.000 in 0.00 W/m2
01:49 78.0 °F 72.0 °F 30.0 in SE 9 mph 11 mph 81% 0.000 in 0.00 W/m2
01:54 78.0 °F 72.0 °F 30.0 in SE 8 mph 9 mph 81% 0.000 in 0.00 W/m2
01:59 78.0 °F 72.0 °F 30.0 in SSE 8 mph 10 mph 81% 0.000 in 0.00 W/m2
02:04 78.0 °F 72.0 °F 30.0 in SSE 9 mph 10 mph 81% 0.000 in 0.00 W/m2
02:09 78.0 °F 72.0 °F 30.0 in SE 11 mph 12 mph 81% 0.000 in 0.00 W/m2
02:14 78.0 °F 72.0 °F 30.0 in SSE 9 mph 10 mph 81% 0.000 in 0.00 W/m2
02:19 78.0 °F 72.0 °F 30.0 in SE 10 mph 10 mph 81% 0.000 in 0.00 W/m2
02:24 78.0 °F 72.0 °F 30.0 in SE 8 mph 9 mph 81% 0.000 in 0.00 W/m2
02:29 78.0 °F 72.0 °F 30.0 in SE 8 mph 9 mph 81% 0.000 in 0.00 W/m2
02:34 78.0 °F 72.0 °F 30.0 in SE 9 mph 9 mph 81% 0.000 in 0.00 W/m2
02:39 78.0 °F 72.0 °F 30.0 in SE 10 mph 10 mph 81% 0.000 in 0.00 W/m2
02:44 78.0 °F 72.0 °F 30.0 in SE 9 mph 9 mph 81% 0.000 in 0.00 W/m2
02:49 78.0 °F 72.0 °F 30.0 in SSE 9 mph 11 mph 81% 0.000 in 0.00 W/m2
02:54 78.0 °F 72.0 °F 30.0 in SSE 7 mph 10 mph 81% 0.000 in 0.00 W/m2
02:59 78.0 °F 72.0 °F 30.0 in SSE 10 mph 12 mph 81% 0.000 in 0.00 W/m2
03:04 78.0 °F 72.0 °F 30.0 in SE 10 mph 12 mph 81% 0.000 in 0.00 W/m2
03:09 78.0 °F 72.0 °F 30.0 in SSE 9 mph 9 mph 82% 0.000 in 0.00 W/m2
03:14 78.0 °F 72.0 °F 30.0 in SE 7 mph 10 mph 82% 0.000 in 0.00 W/m2
03:19 78.0 °F 72.0 °F 30.0 in SSE 5 mph 6 mph 82% 0.000 in 0.00 W/m2
03:24 78.0 °F 73.0 °F 30.0 in SSE 8 mph 9 mph 82% 0.000 in 0.00 W/m2
03:29 78.0 °F 72.0 °F 30.0 in SE 6 mph 8 mph 82% 0.000 in 0.00 W/m2
03:34 78.0 °F 72.0 °F 30.0 in SE 9 mph 9 mph 82% 0.000 in 0.00 W/m2
03:39 78.0 °F 72.0 °F 30.0 in SSE 7 mph 8 mph 82% 0.000 in 0.00 W/m2
03:44 78.0 °F 72.0 °F 30.0 in SE 8 mph 9 mph 82% 0.000 in 0.00 W/m2
03:49 78.0 °F 72.0 °F 30.0 in SSE 9 mph 9 mph 82% 0.000 in 0.00 W/m2
03:54 78.0 °F 72.0 °F 30.0 in SSE 8 mph 8 mph 82% 0.000 in 0.00 W/m2
03:59 78.0 °F 72.0 °F 30.0 in SE 7 mph 7 mph 82% 0.000 in 0.00 W/m2
04:04 78.0 °F 72.0 °F 30.0 in SE 7 mph 8 mph 82% 0.000 in 0.00 W/m2
04:09 78.0 °F 72.0 °F 30.0 in SE 7 mph 7 mph 82% 0.000 in 0.00 W/m2
04:14 78.0 °F 72.0 °F 30.0 in SE 7 mph 9 mph 82% 0.000 in 0.00 W/m2
04:19 78.0 °F 72.0 °F 30.0 in SSE 8 mph 9 mph 82% 0.000 in 0.00 W/m2
04:24 78.0 °F 72.0 °F 30.0 in SE 7 mph 8 mph 82% 0.000 in 0.00 W/m2
04:29 78.0 °F 72.0 °F 30.0 in SE 5 mph 5 mph 82% 0.000 in 0.00 W/m2
04:34 78.0 °F 72.0 °F 30.0 in SSE 6 mph 7 mph 82% 0.000 in 0.00 W/m2
04:39 78.0 °F 72.0 °F 30.0 in SE 6 mph 7 mph 82% 0.000 in 0.00 W/m2
04:44 78.0 °F 72.0 °F 30.0 in SE 5 mph 5 mph 82% 0.000 in 0.00 W/m2
04:49 78.0 °F 72.0 °F 30.0 in SE 6 mph 7 mph 82% 0.000 in 0.00 W/m2
04:54 78.0 °F 72.0 °F 30.0 in SSE 5 mph 7 mph 82% 0.000 in 0.00 W/m2
04:59 78.0 °F 72.0 °F 30.0 in SSE 5 mph 7 mph 82% 0.000 in 0.00 W/m2
05:04 78.0 °F 72.0 °F 30.0 in SSE 5 mph 5 mph 82% 0.000 in 0.00 W/m2
05:09 78.0 °F 72.0 °F 30.0 in SSE 7 mph 7 mph 83% 0.000 in 0.00 W/m2
05:14 78.0 °F 72.0 °F 30.0 in SSE 5 mph 6 mph 83% 0.000 in 0.00 W/m2
05:19 78.0 °F 72.0 °F 30.0 in SE 7 mph 7 mph 83% 0.000 in 0.00 W/m2
05:24 78.0 °F 72.0 °F 30.0 in SE 4 mph 5 mph 83% 0.000 in 0.00 W/m2
05:29 78.0 °F 72.0 °F 30.0 in SE 6 mph 6 mph 83% 0.000 in 0.00 W/m2
05:34 78.0 °F 72.0 °F 30.0 in SE 7 mph 7 mph 83% 0.000 in 0.00 W/m2
05:39 78.0 °F 72.0 °F 30.0 in SE 5 mph 7 mph 83% 0.000 in 0.00 W/m2
05:44 78.0 °F 72.0 °F 30.0 in SE 4 mph 6 mph 83% 0.000 in 0.00 W/m2
05:49 78.0 °F 72.0 °F 30.0 in SSE 5 mph 6 mph 83% 0.000 in 0.00 W/m2
05:54 78.0 °F 72.0 °F 30.0 in SSE 9 mph 9 mph 83% 0.000 in 0.00 W/m2
05:59 78.0 °F 72.0 °F 30.0 in SE 7 mph 8 mph 83% 0.000 in 0.00 W/m2
06:04 77.0 °F 72.0 °F 30.0 in SE 5 mph 6 mph 83% 0.000 in 0.00 W/m2
06:09 78.0 °F 72.0 °F 30.0 in SE 7 mph 7 mph 83% 0.000 in 0.00 W/m2
06:14 78.0 °F 72.0 °F 30.0 in SE 4 mph 4 mph 83% 0.000 in 0.00 W/m2
06:19 77.0 °F 72.0 °F 30.0 in SE 7 mph 7 mph 83% 0.000 in 0.00 W/m2
06:24 77.0 °F 72.0 °F 30.0 in SE 7 mph 7 mph 83% 0.000 in 0.00 W/m2
06:29 77.0 °F 72.0 °F 30.0 in SE 9 mph 9 mph 83% 0.000 in 0.00 W/m2
06:34 77.0 °F 72.0 °F 30.0 in SE 5 mph 9 mph 83% 0.000 in 0.00 W/m2
06:39 77.0 °F 72.0 °F 30.0 in SE 7 mph 7 mph 84% 0.000 in 0.00 W/m2
06:44 77.0 °F 72.0 °F 30.0 in SE 5 mph 7 mph 84% 0.000 in 9.00 W/m2
06:49 77.0 °F 72.0 °F 30.0 in ESE 7 mph 7 mph 84% 0.000 in 12.00 W/m2
06:54 77.0 °F 72.0 °F 30.0 in SE 7 mph 7 mph 84% 0.000 in 19.00 W/m2
06:59 77.0 °F 72.0 °F 30.0 in SE 7 mph 7 mph 84% 0.000 in 19.00 W/m2
07:04 77.0 °F 72.0 °F 30.0 in SE 8 mph 8 mph 84% 0.000 in 23.00 W/m2
07:09 77.0 °F 72.0 °F 30.0 in SE 7 mph 8 mph 84% 0.000 in 26.00 W/m2
07:14 77.0 °F 72.0 °F 30.0 in SE 9 mph 9 mph 84% 0.000 in 25.00 W/m2
07:19 77.0 °F 72.0 °F 30.1 in SE 8 mph 9 mph 84% 0.000 in 30.00 W/m2
07:24 77.0 °F 72.0 °F 30.1 in SE 8 mph 9 mph 84% 0.000 in 33.00 W/m2
07:29 77.0 °F 72.0 °F 30.1 in SE 7 mph 9 mph 84% 0.000 in 35.00 W/m2
07:34 77.0 °F 72.0 °F 30.1 in SE 4 mph 6 mph 84% 0.000 in 39.00 W/m2
07:39 77.0 °F 72.0 °F 30.1 in SE 7 mph 7 mph 84% 0.000 in 49.00 W/m2
07:44 77.0 °F 72.0 °F 30.1 in SE 9 mph 9 mph 84% 0.000 in 60.00 W/m2
07:49 77.0 °F 72.0 °F 30.1 in SE 9 mph 9 mph 84% 0.000 in 60.00 W/m2
07:54 78.0 °F 72.0 °F 30.1 in SE 8 mph 8 mph 84% 0.000 in 77.00 W/m2
07:59 78.0 °F 72.0 °F 30.1 in SSE 8 mph 9 mph 84% 0.000 in 93.00 W/m2
08:04 78.0 °F 73.0 °F 30.1 in SE 9 mph 11 mph 84% 0.000 in 111.00 W/m2
08:09 78.0 °F 73.0 °F 30.1 in SE 7 mph 11 mph 84% 0.000 in 97.00 W/m2
08:14 78.0 °F 73.0 °F 30.1 in SE 9 mph 9 mph 83% 0.000 in 123.00 W/m2
08:19 78.0 °F 73.0 °F 30.1 in SE 9 mph 9 mph 83% 0.000 in 146.00 W/m2
08:24 78.0 °F 73.0 °F 30.1 in SE 9 mph 9 mph 83% 0.000 in 130.00 W/m2
08:29 78.0 °F 73.0 °F 30.1 in SE 8 mph 11 mph 82% 0.000 in 114.00 W/m2
08:34 79.0 °F 73.0 °F 30.1 in SE 9 mph 11 mph 82% 0.000 in 165.00 W/m2
08:39 79.0 °F 73.0 °F 30.1 in SE 8 mph 8 mph 81% 0.000 in 155.00 W/m2
08:44 79.0 °F 73.0 °F 30.1 in SE 10 mph 13 mph 81% 0.000 in 165.00 W/m2
08:49 79.0 °F 73.0 °F 30.1 in SSE 10 mph 11 mph 81% 0.000 in 234.00 W/m2
08:54 80.0 °F 73.0 °F 30.1 in SSE 12 mph 13 mph 80% 0.000 in 302.00 W/m2
08:59 80.0 °F 73.0 °F 30.1 in SE 11 mph 14 mph 79% 0.000 in 392.00 W/m2
09:04 80.0 °F 73.0 °F 30.1 in SE 12 mph 12 mph 79% 0.000 in 385.00 W/m2
09:09 81.0 °F 73.0 °F 30.1 in SE 14 mph 14 mph 78% 0.000 in 392.00 W/m2
09:14 81.0 °F 73.0 °F 30.1 in SE 10 mph 12 mph 77% 0.000 in 408.00 W/m2
09:19 81.0 °F 73.0 °F 30.1 in SE 9 mph 9 mph 77% 0.000 in 420.00 W/m2
09:24 82.0 °F 73.0 °F 30.1 in SE 10 mph 12 mph 76% 0.000 in 464.00 W/m2
09:29 82.0 °F 73.0 °F 30.1 in SE 11 mph 11 mph 74% 0.000 in 464.00 W/m2
09:34 82.0 °F 73.0 °F 30.1 in SE 10 mph 12 mph 73% 0.000 in 501.00 W/m2
09:39 83.0 °F 73.0 °F 30.1 in SE 12 mph 13 mph 73% 0.000 in 499.00 W/m2
09:44 83.0 °F 73.0 °F 30.1 in SE 15 mph 15 mph 73% 0.000 in 496.00 W/m2
09:49 83.0 °F 73.0 °F 30.1 in SE 13 mph 13 mph 71% 0.000 in 519.00 W/m2
09:54 84.0 °F 73.0 °F 30.1 in SE 12 mph 14 mph 70% 0.000 in 483.00 W/m2
09:59 84.0 °F 73.0 °F 30.1 in SE 11 mph 12 mph 70% 0.000 in 494.00 W/m2
10:04 84.0 °F 73.0 °F 30.1 in SE 12 mph 13 mph 69% 0.000 in 526.00 W/m2
10:09 85.0 °F 73.0 °F 30.1 in SE 9 mph 9 mph 69% 0.000 in 548.00 W/m2
10:14 85.0 °F 73.0 °F 30.1 in SE 12 mph 12 mph 69% 0.000 in 629.00 W/m2
10:19 85.0 °F 73.0 °F 30.1 in SSE 13 mph 13 mph 68% 0.000 in 673.00 W/m2
10:24 86.0 °F 73.0 °F 30.1 in SE 12 mph 13 mph 67% 0.000 in 698.00 W/m2
10:29 86.0 °F 73.0 °F 30.1 in SE 10 mph 12 mph 66% 0.000 in 708.00 W/m2
10:34 86.0 °F 73.0 °F 30.1 in SE 10 mph 12 mph 66% 0.000 in 719.00 W/m2
10:39 86.0 °F 73.0 °F 30.1 in SSE 9 mph 12 mph 66% 0.000 in 763.00 W/m2
10:44 87.0 °F 73.0 °F 30.1 in SE 10 mph 10 mph 65% 0.000 in 819.00 W/m2
10:49 87.0 °F 73.0 °F 30.1 in SSE 8 mph 10 mph 65% 0.000 in 819.00 W/m2
10:54 87.0 °F 73.0 °F 30.1 in SE 11 mph 12 mph 64% 0.000 in 784.00 W/m2
10:59 87.0 °F 73.0 °F 30.1 in SE 12 mph 14 mph 62% 0.000 in 791.00 W/m2
11:04 88.0 °F 73.0 °F 30.1 in SE 12 mph 12 mph 62% 0.000 in 807.00 W/m2
11:09 88.0 °F 73.0 °F 30.1 in SE 10 mph 11 mph 62% 0.000 in 823.00 W/m2
11:14 88.0 °F 73.0 °F 30.1 in SE 10 mph 11 mph 62% 0.000 in 823.00 W/m2
11:19 88.0 °F 73.0 °F 30.1 in SE 11 mph 11 mph 61% 0.000 in 849.00 W/m2
11:24 89.0 °F 73.0 °F 30.1 in SE 8 mph 11 mph 60% 0.000 in 846.00 W/m2
11:29 89.0 °F 74.0 °F 30.1 in SE 11 mph 12 mph 61% 0.000 in 856.00 W/m2
11:34 89.0 °F 73.0 °F 30.1 in SE 14 mph 14 mph 59% 0.000 in 872.00 W/m2
11:39 89.0 °F 73.0 °F 30.1 in SE 10 mph 12 mph 59% 0.000 in 875.00 W/m2
11:44 89.0 °F 73.0 °F 30.1 in SE 11 mph 11 mph 58% 0.000 in 900.00 W/m2
11:49 90.0 °F 73.0 °F 30.1 in SE 10 mph 10 mph 57% 0.000 in 896.00 W/m2
11:54 90.0 °F 73.0 °F 30.1 in SE 10 mph 12 mph 57% 0.000 in 893.00 W/m2
11:59 90.0 °F 73.0 °F 30.1 in SE 11 mph 13 mph 58% 0.000 in 904.00 W/m2
12:04 90.0 °F 73.0 °F 30.1 in SE 11 mph 12 mph 57% 0.000 in 905.00 W/m2
12:09 90.0 °F 74.0 °F 30.1 in SE 10 mph 11 mph 58% 0.000 in 912.00 W/m2
12:14 90.0 °F 73.0 °F 30.1 in SE 11 mph 11 mph 56% 0.000 in 921.00 W/m2
12:19 91.0 °F 73.0 °F 30.1 in SE 11 mph 12 mph 57% 0.000 in 937.00 W/m2
12:24 91.0 °F 73.0 °F 30.1 in SE 12 mph 12 mph 57% 0.000 in 940.00 W/m2
12:29 91.0 °F 73.0 °F 30.1 in SE 10 mph 13 mph 57% 0.000 in 942.00 W/m2
12:34 91.0 °F 73.0 °F 30.1 in SSE 12 mph 12 mph 57% 0.000 in 949.00 W/m2
12:39 91.0 °F 73.0 °F 30.1 in SE 10 mph 11 mph 56% 0.000 in 949.00 W/m2
12:44 91.0 °F 73.0 °F 30.1 in SE 15 mph 15 mph 55% 0.000 in 956.00 W/m2
12:49 91.0 °F 73.0 °F 30.1 in SE 8 mph 13 mph 56% 0.000 in 960.00 W/m2
12:54 92.0 °F 74.0 °F 30.1 in SSE 10 mph 11 mph 56% 0.000 in 962.00 W/m2
12:59 92.0 °F 74.0 °F 30.1 in SE 9 mph 11 mph 57% 0.000 in 960.00 W/m2
13:04 92.0 °F 75.0 °F 30.1 in SSE 9 mph 10 mph 57% 0.000 in 965.00 W/m2
13:09 92.0 °F 74.0 °F 30.1 in SE 12 mph 12 mph 56% 0.000 in 967.00 W/m2
13:14 92.0 °F 74.0 °F 30.1 in SSE 9 mph 14 mph 56% 0.000 in 965.00 W/m2
13:19 92.0 °F 73.0 °F 30.1 in SSE 13 mph 13 mph 55% 0.000 in 972.00 W/m2
13:24 92.0 °F 74.0 °F 30.1 in SSE 9 mph 10 mph 56% 0.000 in 974.00 W/m2
13:29 92.0 °F 74.0 °F 30.1 in SE 9 mph 10 mph 56% 0.000 in 970.00 W/m2
13:34 92.0 °F 75.0 °F 30.1 in ESE 10 mph 10 mph 57% 0.000 in 969.00 W/m2
13:39 93.0 °F 75.0 °F 30.1 in SE 8 mph 11 mph 56% 0.000 in 984.00 W/m2
13:44 93.0 °F 75.0 °F 30.1 in ESE 7 mph 11 mph 57% 0.000 in 984.00 W/m2
13:49 93.0 °F 75.0 °F 30.1 in SE 8 mph 13 mph 57% 0.000 in 976.00 W/m2
13:54 93.0 °F 75.0 °F 30.1 in SE 7 mph 8 mph 56% 0.000 in 967.00 W/m2
13:59 93.0 °F 75.0 °F 30.1 in SE 11 mph 11 mph 55% 0.000 in 969.00 W/m2
14:04 93.0 °F 73.0 °F 30.1 in ESE 10 mph 12 mph 53% 0.000 in 960.00 W/m2
14:09 93.0 °F 75.0 °F 30.1 in SE 9 mph 10 mph 56% 0.000 in 946.00 W/m2
14:14 93.0 °F 76.0 °F 30.1 in SE 10 mph 13 mph 57% 0.000 in 981.00 W/m2
14:19 93.0 °F 76.0 °F 30.1 in SE 8 mph 10 mph 57% 0.000 in 940.00 W/m2
14:24 93.0 °F 77.0 °F 30.1 in SE 10 mph 11 mph 58% 0.000 in 940.00 W/m2
14:29 93.0 °F 76.0 °F 30.1 in ESE 10 mph 11 mph 58% 0.000 in 965.00 W/m2
14:34 93.0 °F 77.0 °F 30.1 in SE 10 mph 11 mph 59% 0.000 in 974.00 W/m2
14:39 93.0 °F 76.0 °F 30.1 in ESE 8 mph 11 mph 58% 0.000 in 967.00 W/m2
14:44 93.0 °F 76.0 °F 30.1 in SE 11 mph 16 mph 58% 0.000 in 907.00 W/m2
14:49 93.0 °F 77.0 °F 30.1 in SE 12 mph 12 mph 59% 0.000 in 904.00 W/m2
14:54 93.0 °F 77.0 °F 30.1 in SE 10 mph 10 mph 60% 0.000 in 953.00 W/m2
14:59 93.0 °F 76.0 °F 30.1 in SE 11 mph 12 mph 58% 0.000 in 953.00 W/m2
15:04 93.0 °F 76.0 °F 30.1 in SE 11 mph 12 mph 58% 0.000 in 881.00 W/m2
15:09 93.0 °F 77.0 °F 30.1 in SE 8 mph 9 mph 59% 0.000 in 877.00 W/m2
15:14 93.0 °F 77.0 °F 30.1 in SE 9 mph 10 mph 59% 0.000 in 860.00 W/m2
15:19 93.0 °F 77.0 °F 30.1 in ESE 12 mph 12 mph 58% 0.000 in 853.00 W/m2
15:24 93.0 °F 76.0 °F 30.1 in ESE 9 mph 12 mph 58% 0.000 in 861.00 W/m2
15:29 93.0 °F 76.0 °F 30.1 in SE 11 mph 12 mph 58% 0.000 in 837.00 W/m2
15:34 93.0 °F 76.0 °F 30.1 in ESE 9 mph 11 mph 58% 0.000 in 828.00 W/m2
15:39 93.0 °F 77.0 °F 30.1 in ESE 12 mph 12 mph 59% 0.000 in 800.00 W/m2
15:44 93.0 °F 77.0 °F 30.1 in SE 11 mph 12 mph 59% 0.000 in 795.00 W/m2
15:49 93.0 °F 77.0 °F 30.1 in SE 12 mph 12 mph 59% 0.000 in 779.00 W/m2
15:54 93.0 °F 77.0 °F 30.1 in SE 10 mph 11 mph 59% 0.000 in 768.00 W/m2
15:59 93.0 °F 77.0 °F 30.1 in SE 9 mph 12 mph 59% 0.000 in 758.00 W/m2
16:04 93.0 °F 76.0 °F 30.1 in ESE 11 mph 12 mph 59% 0.000 in 735.00 W/m2
16:09 93.0 °F 77.0 °F 30.1 in ESE 7 mph 9 mph 60% 0.000 in 731.00 W/m2
16:14 93.0 °F 76.0 °F 30.1 in SE 12 mph 12 mph 59% 0.000 in 701.00 W/m2
16:19 93.0 °F 77.0 °F 30.1 in SE 14 mph 14 mph 60% 0.000 in 698.00 W/m2
16:24 93.0 °F 76.0 °F 30.1 in SE 13 mph 15 mph 59% 0.000 in 687.00 W/m2
16:29 93.0 °F 76.0 °F 30.1 in ESE 10 mph 10 mph 59% 0.000 in 675.00 W/m2
16:34 93.0 °F 77.0 °F 30.1 in ESE 11 mph 12 mph 59% 0.000 in 663.00 W/m2
16:39 93.0 °F 76.0 °F 30.1 in SE 14 mph 14 mph 59% 0.000 in 645.00 W/m2
16:44 93.0 °F 76.0 °F 30.1 in SE 12 mph 14 mph 59% 0.000 in 628.00 W/m2
16:49 92.0 °F 76.0 °F 30.1 in ESE 10 mph 12 mph 59% 0.000 in 613.00 W/m2
16:54 92.0 °F 76.0 °F 30.1 in SE 17 mph 17 mph 59% 0.000 in 599.00 W/m2
16:59 92.0 °F 76.0 °F 30.1 in ESE 12 mph 17 mph 59% 0.000 in 584.00 W/m2
17:04 92.0 °F 76.0 °F 30.1 in SE 11 mph 12 mph 59% 0.000 in 566.00 W/m2
17:09 92.0 °F 76.0 °F 30.1 in SE 9 mph 11 mph 60% 0.000 in 554.00 W/m2
17:14 92.0 °F 75.0 °F 30.1 in SE 13 mph 14 mph 59% 0.000 in 531.00 W/m2
17:19 92.0 °F 75.0 °F 30.1 in SE 11 mph 13 mph 59% 0.000 in 512.00 W/m2
17:24 91.0 °F 74.0 °F 30.1 in SE 12 mph 12 mph 58% 0.000 in 492.00 W/m2
17:29 91.0 °F 74.0 °F 30.1 in ESE 13 mph 16 mph 58% 0.000 in 478.00 W/m2
17:34 91.0 °F 74.0 °F 30.1 in ESE 8 mph 16 mph 58% 0.000 in 466.00 W/m2
17:39 91.0 °F 74.0 °F 30.1 in SE 9 mph 10 mph 58% 0.000 in 441.00 W/m2
17:44 91.0 °F 75.0 °F 30.1 in SE 12 mph 12 mph 59% 0.000 in 436.00 W/m2
17:49 91.0 °F 73.0 °F 30.1 in SE 12 mph 12 mph 57% 0.000 in 413.00 W/m2
17:54 90.0 °F 74.0 °F 30.1 in SE 10 mph 12 mph 58% 0.000 in 397.00 W/m2
17:59 90.0 °F 73.0 °F 30.1 in SE 10 mph 10 mph 57% 0.000 in 378.00 W/m2
18:04 90.0 °F 73.0 °F 30.1 in SE 8 mph 12 mph 57% 0.000 in 359.00 W/m2
18:09 90.0 °F 73.0 °F 30.1 in SE 10 mph 10 mph 58% 0.000 in 339.00 W/m2
18:14 90.0 °F 74.0 °F 30.1 in SE 9 mph 10 mph 59% 0.000 in 318.00 W/m2
18:19 90.0 °F 74.0 °F 30.1 in SE 15 mph 15 mph 59% 0.000 in 301.00 W/m2
18:24 89.0 °F 73.0 °F 30.1 in SE 11 mph 13 mph 59% 0.000 in 287.00 W/m2
18:29 89.0 °F 74.0 °F 30.1 in SE 13 mph 14 mph 61% 0.000 in 264.00 W/m2
18:34 89.0 °F 74.0 °F 30.1 in SE 10 mph 11 mph 61% 0.000 in 244.00 W/m2
18:39 88.0 °F 74.0 °F 30.1 in SE 11 mph 11 mph 62% 0.000 in 227.00 W/m2
18:44 88.0 °F 73.0 °F 30.1 in SE 8 mph 11 mph 62% 0.000 in 211.00 W/m2
18:49 88.0 °F 73.0 °F 30.1 in SE 9 mph 11 mph 62% 0.000 in 193.00 W/m2
18:54 88.0 °F 73.0 °F 30.1 in SE 10 mph 10 mph 63% 0.000 in 178.00 W/m2
18:59 87.0 °F 74.0 °F 30.1 in SE 12 mph 14 mph 64% 0.000 in 156.00 W/m2
19:04 87.0 °F 73.0 °F 30.1 in SE 10 mph 12 mph 64% 0.000 in 81.00 W/m2
19:09 87.0 °F 73.0 °F 30.1 in SE 12 mph 12 mph 65% 0.000 in 51.00 W/m2
19:14 86.0 °F 73.0 °F 30.1 in SE 10 mph 12 mph 65% 0.000 in 47.00 W/m2
19:19 86.0 °F 73.0 °F 30.1 in SE 11 mph 12 mph 66% 0.000 in 42.00 W/m2
19:24 86.0 °F 73.0 °F 30.1 in SE 12 mph 12 mph 67% 0.000 in 35.00 W/m2
19:29 85.0 °F 73.0 °F 30.1 in SE 5 mph 12 mph 67% 0.000 in 32.00 W/m2
19:34 85.0 °F 73.0 °F 30.1 in SE 14 mph 14 mph 67% 0.000 in 28.00 W/m2
19:39 84.0 °F 73.0 °F 30.1 in SE 6 mph 9 mph 68% 0.000 in 25.00 W/m2
19:44 84.0 °F 72.0 °F 30.1 in SE 14 mph 14 mph 68% 0.000 in 21.00 W/m2
19:49 84.0 °F 72.0 °F 30.1 in SE 10 mph 11 mph 68% 0.000 in 16.00 W/m2
19:54 84.0 °F 72.0 °F 30.1 in SE 8 mph 12 mph 68% 0.000 in 12.00 W/m2
19:59 83.0 °F 72.0 °F 30.1 in SE 5 mph 8 mph 69% 0.000 in 11.00 W/m2
20:04 83.0 °F 72.0 °F 30.1 in SE 8 mph 10 mph 69% 0.000 in 5.00 W/m2
20:09 83.0 °F 72.0 °F 30.1 in SE 11 mph 11 mph 69% 0.000 in 0.00 W/m2
20:14 83.0 °F 72.0 °F 30.1 in SE 12 mph 12 mph 70% 0.000 in 0.00 W/m2
20:19 82.0 °F 71.0 °F 30.1 in SE 12 mph 13 mph 70% 0.000 in 0.00 W/m2
20:24 82.0 °F 71.0 °F 30.1 in SE 12 mph 14 mph 70% 0.000 in 0.00 W/m2
20:29 82.0 °F 71.0 °F 30.1 in SE 15 mph 15 mph 70% 0.000 in 0.00 W/m2
20:34 82.0 °F 71.0 °F 30.1 in SE 13 mph 13 mph 71% 0.000 in 0.00 W/m2
20:39 81.0 °F 71.0 °F 30.1 in SE 10 mph 13 mph 71% 0.000 in 0.00 W/m2
20:44 81.0 °F 71.0 °F 30.1 in SE 11 mph 13 mph 71% 0.000 in 0.00 W/m2
20:49 81.0 °F 71.0 °F 30.1 in SE 10 mph 11 mph 72% 0.000 in 0.00 W/m2
20:54 81.0 °F 71.0 °F 30.1 in SE 10 mph 10 mph 72% 0.000 in 0.00 W/m2
20:59 81.0 °F 71.0 °F 30.1 in SE 9 mph 9 mph 73% 0.000 in 0.00 W/m2
21:04 81.0 °F 71.0 °F 30.1 in SE 9 mph 9 mph 73% 0.000 in 0.00 W/m2
21:09 81.0 °F 71.0 °F 30.1 in SE 10 mph 12 mph 73% 0.000 in 0.00 W/m2
21:14 81.0 °F 71.0 °F 30.1 in SE 9 mph 12 mph 73% 0.000 in 0.00 W/m2
21:19 80.0 °F 71.0 °F 30.1 in SE 10 mph 10 mph 74% 0.000 in 0.00 W/m2
21:24 80.0 °F 71.0 °F 30.1 in SE 11 mph 11 mph 74% 0.000 in 0.00 W/m2
21:29 80.0 °F 71.0 °F 30.1 in SE 10 mph 11 mph 75% 0.000 in 0.00 W/m2
21:34 80.0 °F 71.0 °F 30.1 in SE 9 mph 11 mph 75% 0.000 in 0.00 W/m2
21:39 80.0 °F 71.0 °F 30.1 in SE 9 mph 9 mph 75% 0.000 in 0.00 W/m2
21:44 80.0 °F 72.0 °F 30.1 in SE 8 mph 9 mph 76% 0.000 in 0.00 W/m2
21:49 80.0 °F 72.0 °F 30.1 in SE 9 mph 9 mph 76% 0.000 in 0.00 W/m2
21:54 80.0 °F 72.0 °F 30.1 in SE 10 mph 10 mph 76% 0.000 in 0.00 W/m2
21:59 80.0 °F 72.0 °F 30.1 in SE 9 mph 10 mph 77% 0.000 in 0.00 W/m2
22:04 80.0 °F 72.0 °F 30.1 in SE 11 mph 13 mph 77% 0.000 in 0.00 W/m2
22:09 80.0 °F 72.0 °F 30.1 in SE 5 mph 10 mph 77% 0.000 in 0.00 W/m2
22:14 80.0 °F 72.0 °F 30.1 in SE 6 mph 8 mph 77% 0.000 in 0.00 W/m2
22:19 79.0 °F 71.0 °F 30.1 in SE 8 mph 10 mph 77% 0.000 in 0.00 W/m2
22:24 79.0 °F 72.0 °F 30.1 in SE 9 mph 9 mph 78% 0.000 in 0.00 W/m2
22:29 79.0 °F 72.0 °F 30.1 in SE 5 mph 9 mph 78% 0.000 in 0.00 W/m2
22:34 79.0 °F 72.0 °F 30.1 in SE 7 mph 7 mph 78% 0.000 in 0.00 W/m2
22:39 79.0 °F 72.0 °F 30.1 in SE 5 mph 7 mph 78% 0.000 in 0.00 W/m2
22:44 79.0 °F 72.0 °F 30.1 in SE 6 mph 7 mph 78% 0.000 in 0.00 W/m2
22:49 79.0 °F 72.0 °F 30.1 in SE 8 mph 11 mph 79% 0.000 in 0.00 W/m2
22:54 79.0 °F 72.0 °F 30.1 in SE 8 mph 11 mph 79% 0.000 in 0.00 W/m2
22:59 79.0 °F 72.0 °F 30.1 in SE 6 mph 6 mph 79% 0.000 in 0.00 W/m2
23:04 79.0 °F 72.0 °F 30.1 in SE 5 mph 7 mph 79% 0.000 in 0.00 W/m2
23:09 79.0 °F 72.0 °F 30.1 in SE 6 mph 7 mph 79% 0.000 in 0.00 W/m2
23:14 79.0 °F 72.0 °F 30.1 in SE 11 mph 11 mph 79% 0.000 in 0.00 W/m2
23:19 79.0 °F 72.0 °F 30.1 in SE 9 mph 11 mph 79% 0.000 in 0.00 W/m2
23:24 79.0 °F 72.0 °F 30.1 in SE 9 mph 11 mph 80% 0.000 in 0.00 W/m2
23:29 79.0 °F 72.0 °F 30.1 in SE 7 mph 11 mph 80% 0.000 in 0.00 W/m2
23:34 79.0 °F 72.0 °F 30.1 in SSE 7 mph 7 mph 80% 0.000 in 0.00 W/m2
23:39 79.0 °F 72.0 °F 30.1 in SSE 8 mph 8 mph 80% 0.000 in 0.00 W/m2
23:44 78.0 °F 72.0 °F 30.1 in SSE 11 mph 11 mph 80% 0.000 in 0.00 W/m2
23:49 78.0 °F 72.0 °F 30.1 in SSE 10 mph 12 mph 80% 0.000 in 0.00 W/m2
23:54 78.0 °F 72.0 °F 30.1 in SSE 9 mph 9 mph 81% 0.000 in 0.00 W/m2
23:59 78.0 °F 72.0 °F 30.1 in SSE 5 mph 7 mph 81% 0.000 in 0.00 W/m2
Villages of Bridgestone, Spring, TX USA
Compliments of Weather Underground - 4 mb